sensor_id;sensor_type;location;lat;lon;timestamp;P1;durP1;ratioP1;P2;durP2;ratioP2
15669;SDS011;18524;45.190;5.732;2023-05-29T00:02:57;7.87;;;5.70;;
15669;SDS011;18524;45.190;5.732;2023-05-29T00:07:47;6.83;;;5.50;;
15669;SDS011;18524;45.190;5.732;2023-05-29T00:12:39;6.87;;;6.03;;
15669;SDS011;18524;45.190;5.732;2023-05-29T00:17:29;6.40;;;5.50;;
15669;SDS011;18524;45.190;5.732;2023-05-29T00:22:23;5.70;;;5.10;;
15669;SDS011;18524;45.190;5.732;2023-05-29T00:27:14;6.10;;;5.30;;
15669;SDS011;18524;45.190;5.732;2023-05-29T00:32:04;7.77;;;5.10;;
15669;SDS011;18524;45.190;5.732;2023-05-29T00:36:55;6.67;;;5.23;;
15669;SDS011;18524;45.190;5.732;2023-05-29T00:41:45;6.10;;;5.50;;
15669;SDS011;18524;45.190;5.732;2023-05-29T00:46:40;7.47;;;5.77;;
15669;SDS011;18524;45.190;5.732;2023-05-29T00:51:31;8.03;;;6.23;;
15669;SDS011;18524;45.190;5.732;2023-05-29T00:56:22;7.50;;;6.10;;
15669;SDS011;18524;45.190;5.732;2023-05-29T01:01:13;6.83;;;6.20;;
15669;SDS011;18524;45.190;5.732;2023-05-29T01:06:03;8.80;;;6.33;;
15669;SDS011;18524;45.190;5.732;2023-05-29T01:10:55;6.43;;;5.83;;
15669;SDS011;18524;45.190;5.732;2023-05-29T01:20:59;6.10;;;5.40;;
15669;SDS011;18524;45.190;5.732;2023-05-29T01:30:51;5.53;;;4.40;;
15669;SDS011;18524;45.190;5.732;2023-05-29T01:35:43;5.40;;;4.90;;
15669;SDS011;18524;45.190;5.732;2023-05-29T01:40:34;5.90;;;4.40;;
15669;SDS011;18524;45.190;5.732;2023-05-29T01:45:25;5.30;;;4.70;;
15669;SDS011;18524;45.190;5.732;2023-05-29T01:50:16;5.73;;;4.77;;
15669;SDS011;18524;45.190;5.732;2023-05-29T01:55:08;6.67;;;5.10;;
15669;SDS011;18524;45.190;5.732;2023-05-29T01:59:58;6.33;;;5.73;;
15669;SDS011;18524;45.190;5.732;2023-05-29T02:04:49;8.63;;;6.23;;
15669;SDS011;18524;45.190;5.732;2023-05-29T02:09:40;7.37;;;6.50;;
15669;SDS011;18524;45.190;5.732;2023-05-29T02:14:30;7.03;;;6.03;;
15669;SDS011;18524;45.190;5.732;2023-05-29T02:19:22;7.47;;;6.17;;
15669;SDS011;18524;45.190;5.732;2023-05-29T02:24:15;8.80;;;6.90;;
15669;SDS011;18524;45.190;5.732;2023-05-29T02:29:05;7.50;;;6.63;;
15669;SDS011;18524;45.190;5.732;2023-05-29T02:33:56;8.00;;;7.00;;
15669;SDS011;18524;45.190;5.732;2023-05-29T02:38:47;8.10;;;7.30;;
15669;SDS011;18524;45.190;5.732;2023-05-29T02:43:37;8.90;;;6.70;;
15669;SDS011;18524;45.190;5.732;2023-05-29T02:48:27;9.97;;;7.20;;
15669;SDS011;18524;45.190;5.732;2023-05-29T02:53:19;8.07;;;6.40;;
15669;SDS011;18524;45.190;5.732;2023-05-29T02:58:09;6.80;;;6.00;;
15669;SDS011;18524;45.190;5.732;2023-05-29T03:03:01;6.63;;;5.93;;
15669;SDS011;18524;45.190;5.732;2023-05-29T03:07:53;6.90;;;6.20;;
15669;SDS011;18524;45.190;5.732;2023-05-29T03:12:44;6.93;;;6.23;;
15669;SDS011;18524;45.190;5.732;2023-05-29T03:17:34;7.13;;;6.43;;
15669;SDS011;18524;45.190;5.732;2023-05-29T03:22:27;7.80;;;6.40;;
15669;SDS011;18524;45.190;5.732;2023-05-29T03:27:17;7.20;;;6.50;;
15669;SDS011;18524;45.190;5.732;2023-05-29T03:32:07;6.57;;;5.93;;
15669;SDS011;18524;45.190;5.732;2023-05-29T03:36:58;9.43;;;6.70;;
15669;SDS011;18524;45.190;5.732;2023-05-29T03:41:48;9.27;;;6.73;;
15669;SDS011;18524;45.190;5.732;2023-05-29T03:46:39;8.67;;;6.80;;
15669;SDS011;18524;45.190;5.732;2023-05-29T03:51:30;7.37;;;6.60;;
15669;SDS011;18524;45.190;5.732;2023-05-29T03:56:20;9.57;;;7.60;;
15669;SDS011;18524;45.190;5.732;2023-05-29T04:01:11;9.20;;;8.30;;
15669;SDS011;18524;45.190;5.732;2023-05-29T04:06:01;9.33;;;8.33;;
15669;SDS011;18524;45.190;5.732;2023-05-29T04:10:52;8.17;;;7.33;;
15669;SDS011;18524;45.190;5.732;2023-05-29T04:15:45;7.90;;;7.17;;
15669;SDS011;18524;45.190;5.732;2023-05-29T04:20:36;9.23;;;7.40;;
15669;SDS011;18524;45.190;5.732;2023-05-29T04:25:26;8.07;;;7.10;;
15669;SDS011;18524;45.190;5.732;2023-05-29T04:30:16;8.13;;;7.33;;
15669;SDS011;18524;45.190;5.732;2023-05-29T04:35:07;8.13;;;7.10;;
15669;SDS011;18524;45.190;5.732;2023-05-29T04:39:58;10.37;;;7.53;;
15669;SDS011;18524;45.190;5.732;2023-05-29T04:44:48;8.40;;;7.57;;
15669;SDS011;18524;45.190;5.732;2023-05-29T04:49:39;11.70;;;7.70;;
15669;SDS011;18524;45.190;5.732;2023-05-29T04:54:30;9.43;;;8.10;;
15669;SDS011;18524;45.190;5.732;2023-05-29T04:59:20;8.93;;;7.97;;
15669;SDS011;18524;45.190;5.732;2023-05-29T05:04:11;8.47;;;7.57;;
15669;SDS011;18524;45.190;5.732;2023-05-29T05:09:02;8.20;;;7.00;;
15669;SDS011;18524;45.190;5.732;2023-05-29T05:13:53;11.43;;;7.63;;
15669;SDS011;18524;45.190;5.732;2023-05-29T05:18:43;9.47;;;7.27;;
15669;SDS011;18524;45.190;5.732;2023-05-29T05:23:34;7.97;;;7.17;;
15669;SDS011;18524;45.190;5.732;2023-05-29T05:28:24;9.80;;;7.10;;
15669;SDS011;18524;45.190;5.732;2023-05-29T05:33:14;9.33;;;7.70;;
15669;SDS011;18524;45.190;5.732;2023-05-29T05:38:05;8.77;;;6.83;;
15669;SDS011;18524;45.190;5.732;2023-05-29T05:42:56;8.87;;;7.27;;
15669;SDS011;18524;45.190;5.732;2023-05-29T05:47:46;10.50;;;7.03;;
15669;SDS011;18524;45.190;5.732;2023-05-29T05:52:37;7.23;;;6.50;;
15669;SDS011;18524;45.190;5.732;2023-05-29T05:57:28;8.60;;;6.70;;
15669;SDS011;18524;45.190;5.732;2023-05-29T06:02:18;7.50;;;6.80;;
15669;SDS011;18524;45.190;5.732;2023-05-29T06:07:08;7.63;;;6.30;;
15669;SDS011;18524;45.190;5.732;2023-05-29T06:11:59;9.43;;;6.77;;
15669;SDS011;18524;45.190;5.732;2023-05-29T06:16:50;9.10;;;7.33;;
15669;SDS011;18524;45.190;5.732;2023-05-29T06:21:40;8.43;;;7.40;;
15669;SDS011;18524;45.190;5.732;2023-05-29T06:26:31;9.73;;;7.87;;
15669;SDS011;18524;45.190;5.732;2023-05-29T06:31:22;9.73;;;8.10;;
15669;SDS011;18524;45.190;5.732;2023-05-29T06:36:12;7.67;;;6.73;;
15669;SDS011;18524;45.190;5.732;2023-05-29T06:41:03;7.07;;;6.37;;
15669;SDS011;18524;45.190;5.732;2023-05-29T06:45:53;6.90;;;6.30;;
15669;SDS011;18524;45.190;5.732;2023-05-29T06:50:44;7.33;;;6.60;;
15669;SDS011;18524;45.190;5.732;2023-05-29T06:55:35;7.47;;;6.10;;
15669;SDS011;18524;45.190;5.732;2023-05-29T07:00:25;6.87;;;6.07;;
15669;SDS011;18524;45.190;5.732;2023-05-29T07:05:15;7.33;;;6.50;;
15669;SDS011;18524;45.190;5.732;2023-05-29T07:10:06;6.70;;;6.10;;
15669;SDS011;18524;45.190;5.732;2023-05-29T07:14:56;9.10;;;6.23;;
15669;SDS011;18524;45.190;5.732;2023-05-29T07:19:47;6.83;;;5.97;;
15669;SDS011;18524;45.190;5.732;2023-05-29T07:24:39;9.80;;;6.80;;
15669;SDS011;18524;45.190;5.732;2023-05-29T07:29:29;7.13;;;6.53;;
15669;SDS011;18524;45.190;5.732;2023-05-29T07:34:19;6.23;;;5.50;;
15669;SDS011;18524;45.190;5.732;2023-05-29T07:39:10;7.60;;;6.07;;
15669;SDS011;18524;45.190;5.732;2023-05-29T07:44:00;8.73;;;5.90;;
15669;SDS011;18524;45.190;5.732;2023-05-29T07:48:50;8.03;;;5.57;;
15669;SDS011;18524;45.190;5.732;2023-05-29T07:53:43;9.83;;;6.73;;
15669;SDS011;18524;45.190;5.732;2023-05-29T07:58:35;11.17;;;8.17;;
15669;SDS011;18524;45.190;5.732;2023-05-29T08:03:25;11.17;;;8.30;;
15669;SDS011;18524;45.190;5.732;2023-05-29T08:08:15;8.40;;;7.23;;
15669;SDS011;18524;45.190;5.732;2023-05-29T08:13:06;9.53;;;8.63;;
15669;SDS011;18524;45.190;5.732;2023-05-29T08:17:56;7.93;;;6.40;;
15669;SDS011;18524;45.190;5.732;2023-05-29T08:22:47;7.53;;;6.13;;
15669;SDS011;18524;45.190;5.732;2023-05-29T08:27:37;6.33;;;5.77;;
15669;SDS011;18524;45.190;5.732;2023-05-29T08:32:27;6.00;;;5.40;;
15669;SDS011;18524;45.190;5.732;2023-05-29T08:37:18;6.17;;;5.57;;
15669;SDS011;18524;45.190;5.732;2023-05-29T08:42:13;7.57;;;6.43;;
15669;SDS011;18524;45.190;5.732;2023-05-29T08:47:10;6.87;;;5.83;;
15669;SDS011;18524;45.190;5.732;2023-05-29T08:52:11;6.30;;;5.80;;
15669;SDS011;18524;45.190;5.732;2023-05-29T08:57:05;5.73;;;5.13;;
15669;SDS011;18524;45.190;5.732;2023-05-29T09:01:56;5.20;;;4.70;;
15669;SDS011;18524;45.190;5.732;2023-05-29T09:06:47;6.00;;;5.50;;
15669;SDS011;18524;45.190;5.732;2023-05-29T09:11:38;5.67;;;5.23;;
15669;SDS011;18524;45.190;5.732;2023-05-29T09:16:28;6.60;;;5.10;;
15669;SDS011;18524;45.190;5.732;2023-05-29T09:21:26;5.93;;;5.37;;
15669;SDS011;18524;45.190;5.732;2023-05-29T09:26:17;5.83;;;5.13;;
15669;SDS011;18524;45.190;5.732;2023-05-29T09:31:13;5.97;;;5.40;;
15669;SDS011;18524;45.190;5.732;2023-05-29T09:36:05;6.13;;;5.53;;
15669;SDS011;18524;45.190;5.732;2023-05-29T09:40:55;6.30;;;5.70;;
15669;SDS011;18524;45.190;5.732;2023-05-29T09:45:54;8.30;;;5.43;;
15669;SDS011;18524;45.190;5.732;2023-05-29T09:50:45;6.73;;;5.33;;
15669;SDS011;18524;45.190;5.732;2023-05-29T09:55:37;5.30;;;4.87;;
15669;SDS011;18524;45.190;5.732;2023-05-29T10:00:28;6.27;;;5.40;;
15669;SDS011;18524;45.190;5.732;2023-05-29T10:05:18;5.83;;;5.33;;
15669;SDS011;18524;45.190;5.732;2023-05-29T10:10:09;5.93;;;5.33;;
15669;SDS011;18524;45.190;5.732;2023-05-29T10:15:02;6.07;;;5.50;;
15669;SDS011;18524;45.190;5.732;2023-05-29T10:19:54;5.93;;;5.43;;
15669;SDS011;18524;45.190;5.732;2023-05-29T10:24:48;6.77;;;5.97;;
15669;SDS011;18524;45.190;5.732;2023-05-29T10:29:55;7.10;;;6.40;;
15669;SDS011;18524;45.190;5.732;2023-05-29T10:35:17;7.37;;;6.67;;
15669;SDS011;18524;45.190;5.732;2023-05-29T10:40:12;7.17;;;6.40;;
15669;SDS011;18524;45.190;5.732;2023-05-29T10:45:03;6.93;;;6.20;;
15669;SDS011;18524;45.190;5.732;2023-05-29T10:49:53;6.63;;;6.03;;
15669;SDS011;18524;45.190;5.732;2023-05-29T10:54:51;6.90;;;6.20;;
15669;SDS011;18524;45.190;5.732;2023-05-29T10:59:44;7.40;;;6.70;;
15669;SDS011;18524;45.190;5.732;2023-05-29T11:04:35;7.73;;;5.93;;
15669;SDS011;18524;45.190;5.732;2023-05-29T11:09:30;6.80;;;6.13;;
15669;SDS011;18524;45.190;5.732;2023-05-29T11:14:21;6.43;;;5.83;;
15669;SDS011;18524;45.190;5.732;2023-05-29T11:19:12;6.60;;;6.07;;
15669;SDS011;18524;45.190;5.732;2023-05-29T11:24:02;7.07;;;6.40;;
15669;SDS011;18524;45.190;5.732;2023-05-29T11:28:56;6.57;;;6.07;;
15669;SDS011;18524;45.190;5.732;2023-05-29T11:33:48;7.30;;;6.47;;
15669;SDS011;18524;45.190;5.732;2023-05-29T11:38:40;6.43;;;5.83;;
15669;SDS011;18524;45.190;5.732;2023-05-29T11:43:31;7.43;;;6.20;;
15669;SDS011;18524;45.190;5.732;2023-05-29T11:48:22;6.87;;;6.20;;
15669;SDS011;18524;45.190;5.732;2023-05-29T11:53:13;6.90;;;6.30;;
15669;SDS011;18524;45.190;5.732;2023-05-29T11:58:04;6.77;;;6.17;;
15669;SDS011;18524;45.190;5.732;2023-05-29T12:02:57;6.63;;;6.13;;
15669;SDS011;18524;45.190;5.732;2023-05-29T12:07:51;7.40;;;6.70;;
15669;SDS011;18524;45.190;5.732;2023-05-29T12:12:43;6.93;;;6.33;;
15669;SDS011;18524;45.190;5.732;2023-05-29T12:17:37;7.00;;;6.30;;
15669;SDS011;18524;45.190;5.732;2023-05-29T12:22:36;7.23;;;6.63;;
15669;SDS011;18524;45.190;5.732;2023-05-29T12:27:27;9.10;;;8.20;;
15669;SDS011;18524;45.190;5.732;2023-05-29T12:32:17;7.10;;;6.40;;
15669;SDS011;18524;45.190;5.732;2023-05-29T12:37:09;7.10;;;6.43;;
15669;SDS011;18524;45.190;5.732;2023-05-29T12:42:03;7.43;;;6.67;;
15669;SDS011;18524;45.190;5.732;2023-05-29T12:46:56;6.87;;;6.30;;
15669;SDS011;18524;45.190;5.732;2023-05-29T12:51:46;6.40;;;5.90;;
15669;SDS011;18524;45.190;5.732;2023-05-29T12:56:38;7.17;;;6.60;;
15669;SDS011;18524;45.190;5.732;2023-05-29T13:01:31;7.43;;;6.63;;
15669;SDS011;18524;45.190;5.732;2023-05-29T13:06:22;8.13;;;7.27;;
15669;SDS011;18524;45.190;5.732;2023-05-29T13:11:12;7.17;;;6.47;;
15669;SDS011;18524;45.190;5.732;2023-05-29T13:16:03;8.13;;;7.43;;
15669;SDS011;18524;45.190;5.732;2023-05-29T13:20:53;7.33;;;6.73;;
15669;SDS011;18524;45.190;5.732;2023-05-29T13:25:44;7.83;;;7.23;;
15669;SDS011;18524;45.190;5.732;2023-05-29T13:30:35;8.37;;;7.30;;
15669;SDS011;18524;45.190;5.732;2023-05-29T13:35:26;8.33;;;7.63;;
15669;SDS011;18524;45.190;5.732;2023-05-29T13:40:16;8.50;;;7.70;;
15669;SDS011;18524;45.190;5.732;2023-05-29T13:45:06;8.27;;;7.43;;
15669;SDS011;18524;45.190;5.732;2023-05-29T13:49:58;7.90;;;7.30;;
15669;SDS011;18524;45.190;5.732;2023-05-29T13:54:49;8.07;;;6.93;;
15669;SDS011;18524;45.190;5.732;2023-05-29T13:59:39;7.73;;;7.10;;
15669;SDS011;18524;45.190;5.732;2023-05-29T14:04:30;8.30;;;7.50;;
15669;SDS011;18524;45.190;5.732;2023-05-29T14:09:20;8.87;;;7.97;;
15669;SDS011;18524;45.190;5.732;2023-05-29T14:14:17;7.83;;;7.17;;
15669;SDS011;18524;45.190;5.732;2023-05-29T14:19:07;8.57;;;7.70;;
15669;SDS011;18524;45.190;5.732;2023-05-29T14:23:57;8.60;;;7.83;;
15669;SDS011;18524;45.190;5.732;2023-05-29T14:28:48;8.80;;;7.90;;
15669;SDS011;18524;45.190;5.732;2023-05-29T14:33:38;8.50;;;7.70;;
15669;SDS011;18524;45.190;5.732;2023-05-29T14:38:28;8.97;;;7.00;;
15669;SDS011;18524;45.190;5.732;2023-05-29T14:43:19;8.57;;;7.13;;
15669;SDS011;18524;45.190;5.732;2023-05-29T14:48:10;8.47;;;7.77;;
15669;SDS011;18524;45.190;5.732;2023-05-29T14:53:00;8.37;;;7.53;;
15669;SDS011;18524;45.190;5.732;2023-05-29T14:57:51;11.93;;;9.23;;
15669;SDS011;18524;45.190;5.732;2023-05-29T15:02:41;7.63;;;6.93;;
15669;SDS011;18524;45.190;5.732;2023-05-29T15:07:32;8.10;;;6.90;;
15669;SDS011;18524;45.190;5.732;2023-05-29T15:12:26;8.67;;;7.87;;
15669;SDS011;18524;45.190;5.732;2023-05-29T15:17:16;9.37;;;8.37;;
15669;SDS011;18524;45.190;5.732;2023-05-29T15:22:07;9.37;;;7.47;;
15669;SDS011;18524;45.190;5.732;2023-05-29T15:26:58;8.03;;;7.23;;
15669;SDS011;18524;45.190;5.732;2023-05-29T15:31:48;8.03;;;7.23;;
15669;SDS011;18524;45.190;5.732;2023-05-29T15:36:38;8.23;;;7.43;;
15669;SDS011;18524;45.190;5.732;2023-05-29T15:41:29;8.30;;;7.50;;
15669;SDS011;18524;45.190;5.732;2023-05-29T15:46:21;9.47;;;8.57;;
15669;SDS011;18524;45.190;5.732;2023-05-29T15:51:11;8.90;;;8.07;;
15669;SDS011;18524;45.190;5.732;2023-05-29T15:56:02;10.03;;;8.70;;
15669;SDS011;18524;45.190;5.732;2023-05-29T16:00:53;8.93;;;8.13;;
15669;SDS011;18524;45.190;5.732;2023-05-29T16:05:43;10.57;;;8.50;;
15669;SDS011;18524;45.190;5.732;2023-05-29T16:10:34;10.47;;;8.30;;
15669;SDS011;18524;45.190;5.732;2023-05-29T16:15:25;8.97;;;8.07;;
15669;SDS011;18524;45.190;5.732;2023-05-29T16:20:15;9.00;;;8.10;;
15669;SDS011;18524;45.190;5.732;2023-05-29T16:25:06;9.47;;;8.47;;
15669;SDS011;18524;45.190;5.732;2023-05-29T16:29:58;10.60;;;8.90;;
15669;SDS011;18524;45.190;5.732;2023-05-29T16:34:48;9.37;;;8.37;;
15669;SDS011;18524;45.190;5.732;2023-05-29T16:39:39;9.90;;;8.90;;
15669;SDS011;18524;45.190;5.732;2023-05-29T16:44:29;9.47;;;8.50;;
15669;SDS011;18524;45.190;5.732;2023-05-29T16:49:19;13.33;;;9.43;;
15669;SDS011;18524;45.190;5.732;2023-05-29T16:54:12;13.53;;;9.17;;
15669;SDS011;18524;45.190;5.732;2023-05-29T16:59:02;17.67;;;10.67;;
15669;SDS011;18524;45.190;5.732;2023-05-29T17:03:52;10.77;;;9.60;;
15669;SDS011;18524;45.190;5.732;2023-05-29T17:08:43;10.27;;;8.53;;
15669;SDS011;18524;45.190;5.732;2023-05-29T17:13:33;10.37;;;9.27;;
15669;SDS011;18524;45.190;5.732;2023-05-29T17:18:23;10.10;;;9.07;;
15669;SDS011;18524;45.190;5.732;2023-05-29T17:23:14;12.40;;;9.47;;
15669;SDS011;18524;45.190;5.732;2023-05-29T17:28:04;11.17;;;9.97;;
15669;SDS011;18524;45.190;5.732;2023-05-29T17:32:59;11.93;;;10.07;;
15669;SDS011;18524;45.190;5.732;2023-05-29T17:37:52;11.43;;;9.90;;
15669;SDS011;18524;45.190;5.732;2023-05-29T17:42:43;13.60;;;10.13;;
15669;SDS011;18524;45.190;5.732;2023-05-29T17:47:33;13.00;;;10.53;;
15669;SDS011;18524;45.190;5.732;2023-05-29T17:52:24;11.53;;;10.43;;
15669;SDS011;18524;45.190;5.732;2023-05-29T17:57:14;12.33;;;11.03;;
15669;SDS011;18524;45.190;5.732;2023-05-29T18:02:06;11.80;;;9.77;;
15669;SDS011;18524;45.190;5.732;2023-05-29T18:06:57;11.83;;;9.20;;
15669;SDS011;18524;45.190;5.732;2023-05-29T18:11:47;11.93;;;10.60;;
15669;SDS011;18524;45.190;5.732;2023-05-29T18:16:38;11.90;;;10.70;;
15669;SDS011;18524;45.190;5.732;2023-05-29T18:21:30;10.33;;;9.33;;
15669;SDS011;18524;45.190;5.732;2023-05-29T18:26:20;14.27;;;10.27;;
15669;SDS011;18524;45.190;5.732;2023-05-29T18:31:11;10.03;;;9.07;;
15669;SDS011;18524;45.190;5.732;2023-05-29T18:36:02;10.77;;;9.23;;
15669;SDS011;18524;45.190;5.732;2023-05-29T18:40:53;10.20;;;9.20;;
15669;SDS011;18524;45.190;5.732;2023-05-29T18:45:43;10.57;;;9.60;;
15669;SDS011;18524;45.190;5.732;2023-05-29T18:50:34;9.87;;;8.60;;
15669;SDS011;18524;45.190;5.732;2023-05-29T18:55:24;8.47;;;7.40;;
15669;SDS011;18524;45.190;5.732;2023-05-29T19:00:14;9.67;;;7.80;;
15669;SDS011;18524;45.190;5.732;2023-05-29T19:05:05;8.07;;;7.30;;
15669;SDS011;18524;45.190;5.732;2023-05-29T19:09:56;8.53;;;7.73;;
15669;SDS011;18524;45.190;5.732;2023-05-29T19:14:46;10.20;;;7.87;;
15669;SDS011;18524;45.190;5.732;2023-05-29T19:19:37;10.13;;;8.47;;
15669;SDS011;18524;45.190;5.732;2023-05-29T19:24:29;9.57;;;7.97;;
15669;SDS011;18524;45.190;5.732;2023-05-29T19:29:19;8.90;;;7.90;;
15669;SDS011;18524;45.190;5.732;2023-05-29T19:34:10;10.67;;;8.07;;
15669;SDS011;18524;45.190;5.732;2023-05-29T19:39:01;9.37;;;8.43;;
15669;SDS011;18524;45.190;5.732;2023-05-29T19:43:51;9.47;;;8.47;;
15669;SDS011;18524;45.190;5.732;2023-05-29T19:48:41;8.90;;;8.00;;
15669;SDS011;18524;45.190;5.732;2023-05-29T19:53:32;10.27;;;8.20;;
15669;SDS011;18524;45.190;5.732;2023-05-29T19:58:23;10.33;;;8.27;;
15669;SDS011;18524;45.190;5.732;2023-05-29T20:03:13;9.03;;;8.13;;
15669;SDS011;18524;45.190;5.732;2023-05-29T20:08:04;9.87;;;8.97;;
15669;SDS011;18524;45.190;5.732;2023-05-29T20:12:54;10.30;;;8.63;;
15669;SDS011;18524;45.190;5.732;2023-05-29T20:17:45;10.83;;;9.30;;
15669;SDS011;18524;45.190;5.732;2023-05-29T20:22:35;9.87;;;8.90;;
15669;SDS011;18524;45.190;5.732;2023-05-29T20:27:26;9.90;;;8.90;;
15669;SDS011;18524;45.190;5.732;2023-05-29T20:32:16;10.03;;;8.63;;
15669;SDS011;18524;45.190;5.732;2023-05-29T20:37:06;9.47;;;8.57;;
15669;SDS011;18524;45.190;5.732;2023-05-29T20:41:57;9.40;;;8.37;;
15669;SDS011;18524;45.190;5.732;2023-05-29T20:46:48;10.10;;;8.40;;
15669;SDS011;18524;45.190;5.732;2023-05-29T20:51:39;9.47;;;8.57;;
15669;SDS011;18524;45.190;5.732;2023-05-29T20:56:29;9.97;;;8.63;;
15669;SDS011;18524;45.190;5.732;2023-05-29T21:01:20;10.33;;;9.00;;
15669;SDS011;18524;45.190;5.732;2023-05-29T21:06:11;9.80;;;8.17;;
15669;SDS011;18524;45.190;5.732;2023-05-29T21:11:01;9.00;;;8.10;;
15669;SDS011;18524;45.190;5.732;2023-05-29T21:15:52;10.73;;;8.17;;
15669;SDS011;18524;45.190;5.732;2023-05-29T21:20:43;10.20;;;8.20;;
15669;SDS011;18524;45.190;5.732;2023-05-29T21:25:34;9.03;;;8.13;;
15669;SDS011;18524;45.190;5.732;2023-05-29T21:30:24;11.17;;;8.30;;
15669;SDS011;18524;45.190;5.732;2023-05-29T21:35:15;10.83;;;7.87;;
15669;SDS011;18524;45.190;5.732;2023-05-29T21:40:06;9.47;;;8.47;;
15669;SDS011;18524;45.190;5.732;2023-05-29T21:44:59;9.87;;;8.30;;
15669;SDS011;18524;45.190;5.732;2023-05-29T21:49:50;9.13;;;8.07;;
15669;SDS011;18524;45.190;5.732;2023-05-29T21:54:40;9.93;;;8.00;;
15669;SDS011;18524;45.190;5.732;2023-05-29T21:59:31;8.97;;;8.10;;
15669;SDS011;18524;45.190;5.732;2023-05-29T22:04:21;9.37;;;8.47;;
15669;SDS011;18524;45.190;5.732;2023-05-29T22:09:11;12.63;;;8.43;;
15669;SDS011;18524;45.190;5.732;2023-05-29T22:14:02;8.53;;;7.67;;
15669;SDS011;18524;45.190;5.732;2023-05-29T22:18:52;8.33;;;7.63;;
15669;SDS011;18524;45.190;5.732;2023-05-29T22:23:43;9.50;;;8.50;;
15669;SDS011;18524;45.190;5.732;2023-05-29T22:28:33;9.23;;;8.33;;
15669;SDS011;18524;45.190;5.732;2023-05-29T22:33:23;10.20;;;9.00;;
15669;SDS011;18524;45.190;5.732;2023-05-29T22:38:14;12.77;;;9.30;;
15669;SDS011;18524;45.190;5.732;2023-05-29T22:43:05;9.50;;;8.60;;
15669;SDS011;18524;45.190;5.732;2023-05-29T22:47:56;10.73;;;8.90;;
15669;SDS011;18524;45.190;5.732;2023-05-29T22:52:47;9.67;;;8.00;;
15669;SDS011;18524;45.190;5.732;2023-05-29T22:57:37;10.33;;;7.97;;
15669;SDS011;18524;45.190;5.732;2023-05-29T23:02:28;8.97;;;8.00;;
15669;SDS011;18524;45.190;5.732;2023-05-29T23:07:18;9.20;;;8.17;;
15669;SDS011;18524;45.190;5.732;2023-05-29T23:12:09;10.83;;;8.27;;
15669;SDS011;18524;45.190;5.732;2023-05-29T23:17:00;10.53;;;8.60;;
15669;SDS011;18524;45.190;5.732;2023-05-29T23:21:51;9.23;;;8.30;;
15669;SDS011;18524;45.190;5.732;2023-05-29T23:26:41;12.27;;;8.40;;
15669;SDS011;18524;45.190;5.732;2023-05-29T23:31:31;9.30;;;8.30;;
15669;SDS011;18524;45.190;5.732;2023-05-29T23:36:25;9.87;;;8.57;;
15669;SDS011;18524;45.190;5.732;2023-05-29T23:41:16;8.87;;;7.97;;
15669;SDS011;18524;45.190;5.732;2023-05-29T23:46:06;8.93;;;6.83;;
15669;SDS011;18524;45.190;5.732;2023-05-29T23:50:57;7.03;;;6.37;;
15669;SDS011;18524;45.190;5.732;2023-05-29T23:55:47;7.40;;;6.70;;
